Audubon, Pennsylvania
Current Conditions -  °F | °C
As of 2:15 PM on Friday 21 Nov 2014 (Local Time) from KLOM Reporting Station
Clear Clear  
Wind Chill: -2°   Ceiling: Unl
Heat Index:   Visibility: 10mi
Dew Point: -12°   Wind: 8mph
Humidity: 35%   Direction: 270°W
Pressure: 30.37"   Gusts: NA
Location:  40.13°N, 75.43°W
Report Text: KLOM 211915Z AUTO 27007KT 10SM CLR 02/M12 A3037 RMK AO1
Loading
Personal Weather Stations






























Interactive Weather Map New forecast layout! Learn more

10-Day Weather Forecast

Advertisements
Track Severe Weather on mobile